Hanska, Minnesota
Current Conditions -  °F | °C
As of 12:14 AM on Monday 22 Dec 2014 (Local Time) from KULM Reporting Station
Haze Haze  
Wind Chill: 29°   Ceiling: 500
Heat Index: 37°   Visibility: 3mi
Dew Point: 37°   Wind: 15mph
Humidity: 100%   Direction: 160°SSE
Pressure: 29.65"   Gusts: NA
Location:  44.15°N, 94.49°W
Report Text: KULM 220614Z AUTO 16013KT 3SM BR OVC005 03/03 A2965 RMK AO2
Loading
Personal Weather Stations






























Interactive Weather Map New forecast layout! Learn more

10-Day Weather Forecast

Advertisements
Track Severe Weather on mobile